createdAt,value
2023-05-04T00:01:24.702Z,13.12
2023-05-04T00:03:54.951Z,13.13
2023-05-04T00:06:23.486Z,13.16
2023-05-04T00:08:51.885Z,13.20
2023-05-04T00:11:20.464Z,13.24
2023-05-04T00:13:48.927Z,13.23
2023-05-04T00:16:17.381Z,13.22
2023-05-04T00:18:45.848Z,13.24
2023-05-04T00:21:14.236Z,13.25
2023-05-04T00:23:42.597Z,13.25
2023-05-04T00:26:10.932Z,13.25
2023-05-04T00:28:39.452Z,13.23
2023-05-04T00:31:08.173Z,13.25
2023-05-04T00:33:36.658Z,13.26
2023-05-04T00:36:05.367Z,13.29
2023-05-04T00:38:48.324Z,13.31
2023-05-04T00:41:17.860Z,13.33
2023-05-04T00:43:46.382Z,13.34
2023-05-04T00:46:15.095Z,13.35
2023-05-04T00:48:46.303Z,13.30
2023-05-04T00:51:16.537Z,13.34
2023-05-04T00:53:45.652Z,13.27
2023-05-04T00:56:14.521Z,13.32
2023-05-04T00:58:43.379Z,13.31
2023-05-04T01:01:11.819Z,13.30
2023-05-04T01:03:40.362Z,13.28
2023-05-04T01:06:30.580Z,13.26
2023-05-04T01:09:07.382Z,13.22
2023-05-04T01:12:03.331Z,13.16
2023-05-04T01:14:31.906Z,13.13
2023-05-04T01:17:05.610Z,13.11
2023-05-04T01:19:35.277Z,13.09
2023-05-04T01:22:04.234Z,13.05
2023-05-04T01:24:33.126Z,13.02
2023-05-04T01:27:23.915Z,13.02
2023-05-04T01:30:03.223Z,12.99
2023-05-04T01:32:32.773Z,12.97
2023-05-04T01:35:01.631Z,12.95
2023-05-04T01:37:30.075Z,12.95
2023-05-04T01:39:58.692Z,12.96
2023-05-04T01:42:27.115Z,12.95
2023-05-04T01:44:56.563Z,12.95
2023-05-04T01:47:25.033Z,12.96
2023-05-04T01:49:53.535Z,12.94
2023-05-04T01:52:21.935Z,12.96
2023-05-04T01:54:50.536Z,12.97
2023-05-04T01:57:18.926Z,12.97
2023-05-04T01:59:47.240Z,12.98
2023-05-04T02:02:15.685Z,13.00
2023-05-04T02:04:44.579Z,12.98
2023-05-04T02:07:13.234Z,12.99
2023-05-04T02:09:41.808Z,12.98
2023-05-04T02:12:10.160Z,12.94
2023-05-04T02:14:38.650Z,12.97
2023-05-04T02:17:07.312Z,12.99
2023-05-04T02:19:35.723Z,12.99
2023-05-04T02:22:04.085Z,12.98
2023-05-04T02:24:32.475Z,12.99
2023-05-04T02:27:02.261Z,13.00
2023-05-04T02:29:30.671Z,13.01
2023-05-04T02:31:59.266Z,13.00
2023-05-04T02:34:27.780Z,13.00
2023-05-04T02:36:56.122Z,12.99
2023-05-04T02:39:24.520Z,12.97
2023-05-04T02:41:52.937Z,12.98
2023-05-04T02:44:21.773Z,12.90
2023-05-04T02:46:50.106Z,12.77
2023-05-04T02:49:18.442Z,12.65
2023-05-04T02:51:47.797Z,12.60
2023-05-04T02:54:16.367Z,12.53
2023-05-04T02:56:44.735Z,12.52
2023-05-04T02:59:13.394Z,12.52
2023-05-04T03:01:41.937Z,12.55
2023-05-04T03:04:10.406Z,12.56
2023-05-04T03:06:38.791Z,12.49
2023-05-04T03:09:07.177Z,12.50
2023-05-04T03:11:35.718Z,12.49
2023-05-04T03:14:04.309Z,12.45
2023-05-04T03:16:32.806Z,12.31
2023-05-04T03:19:01.555Z,12.42
2023-05-04T03:21:30.770Z,12.40
2023-05-04T03:23:59.488Z,12.36
2023-05-04T03:26:28.860Z,12.40
2023-05-04T03:28:57.316Z,12.44
2023-05-04T03:31:26.447Z,12.42
2023-05-04T03:33:55.286Z,12.43
2023-05-04T03:36:23.919Z,12.36
2023-05-04T03:38:52.971Z,12.37
2023-05-04T03:41:21.640Z,12.26
2023-05-04T03:43:50.174Z,12.18
2023-05-04T03:46:20.068Z,12.16
2023-05-04T03:48:48.460Z,12.24
2023-05-04T03:51:17.659Z,12.25
2023-05-04T03:53:46.379Z,12.31
2023-05-04T03:56:15.842Z,12.37
2023-05-04T03:58:44.280Z,12.40
2023-05-04T04:01:14.688Z,12.43
2023-05-04T04:03:43.145Z,12.50
2023-05-04T04:06:13.618Z,12.59
2023-05-04T04:08:42.363Z,12.68
2023-05-04T04:11:10.720Z,12.73
2023-05-04T04:13:39.056Z,12.67
2023-05-04T04:16:07.869Z,12.77
2023-05-04T04:18:36.315Z,12.87
2023-05-04T04:21:04.910Z,12.90
2023-05-04T04:23:33.374Z,12.91
2023-05-04T04:26:01.801Z,12.96
2023-05-04T04:28:30.579Z,13.01
2023-05-04T04:31:04.083Z,13.00
2023-05-04T04:33:32.768Z,12.94
2023-05-04T04:36:01.946Z,13.04
2023-05-04T04:38:30.441Z,13.11
2023-05-04T04:40:58.792Z,13.17
2023-05-04T04:43:27.152Z,13.26
2023-05-04T04:45:55.858Z,13.21
2023-05-04T04:48:26.055Z,13.33
2023-05-04T04:50:54.696Z,13.40
2023-05-04T04:53:23.145Z,13.53
2023-05-04T04:55:52.460Z,13.55
2023-05-04T04:58:21.217Z,13.53
2023-05-04T05:00:53.134Z,13.58
2023-05-04T05:03:21.804Z,13.61
2023-05-04T05:05:50.410Z,13.68
2023-05-04T05:08:18.884Z,13.82
2023-05-04T05:10:47.393Z,13.92
2023-05-04T05:13:15.946Z,14.04
2023-05-04T05:15:44.511Z,14.06
2023-05-04T05:18:12.915Z,14.18
2023-05-04T05:20:41.229Z,14.21
2023-05-04T05:23:09.776Z,14.34
2023-05-04T05:25:39.253Z,14.41
2023-05-04T05:28:10.400Z,14.44
2023-05-04T05:30:38.898Z,14.45
2023-05-04T05:33:07.891Z,14.52
2023-05-04T05:35:36.802Z,14.58
2023-05-04T05:38:05.196Z,14.52
2023-05-04T05:40:33.599Z,14.59
2023-05-04T05:43:07.027Z,14.70
2023-05-04T05:45:35.903Z,14.75
2023-05-04T05:48:04.722Z,14.75
2023-05-04T05:50:34.445Z,14.67
2023-05-04T05:53:02.941Z,14.79
2023-05-04T05:55:31.419Z,14.74
2023-05-04T05:57:59.955Z,14.77
2023-05-04T06:00:28.848Z,14.70
2023-05-04T06:02:57.465Z,14.75
2023-05-04T06:05:26.037Z,14.73
2023-05-04T06:07:54.513Z,14.64
2023-05-04T06:10:22.873Z,14.44
2023-05-04T06:12:51.254Z,14.60
2023-05-04T06:15:20.062Z,14.62
2023-05-04T06:17:50.109Z,14.69
2023-05-04T06:20:18.508Z,14.70
2023-05-04T06:22:47.025Z,14.87
2023-05-04T06:25:15.742Z,14.91
2023-05-04T06:27:44.350Z,15.05
2023-05-04T06:30:14.303Z,15.06
2023-05-04T06:32:48.477Z,15.23
2023-05-04T06:35:17.010Z,15.25
2023-05-04T06:37:45.348Z,15.48
2023-05-04T06:40:21.211Z,15.57
2023-05-04T06:42:49.797Z,15.60
2023-05-04T06:45:18.417Z,15.67
2023-05-04T06:47:47.481Z,15.76
2023-05-04T06:50:16.071Z,15.76
2023-05-04T06:52:46.655Z,15.81
2023-05-04T06:55:15.158Z,15.75
2023-05-04T06:57:43.819Z,15.83
2023-05-04T07:00:12.832Z,15.84
2023-05-04T07:02:41.245Z,15.90
2023-05-04T07:05:10.315Z,15.92
2023-05-04T07:07:38.820Z,15.88
2023-05-04T07:10:07.821Z,15.95
2023-05-04T07:12:37.888Z,15.90
2023-05-04T07:15:11.375Z,15.95
2023-05-04T07:17:40.497Z,15.81
2023-05-04T07:20:09.321Z,15.88
2023-05-04T07:22:38.232Z,15.77
2023-05-04T07:25:06.892Z,15.63
2023-05-04T07:27:37.998Z,15.69
2023-05-04T07:30:07.622Z,15.60
2023-05-04T07:32:36.276Z,15.47
2023-05-04T07:35:05.386Z,15.53
2023-05-04T07:37:33.722Z,15.49
2023-05-04T07:40:06.308Z,15.39
2023-05-04T07:42:35.170Z,15.32
2023-05-04T07:45:04.247Z,15.32
2023-05-04T07:47:32.933Z,15.21
2023-05-04T07:50:02.049Z,15.11
2023-05-04T07:52:30.871Z,15.06
2023-05-04T07:54:59.310Z,14.96
2023-05-04T07:57:27.712Z,14.86
2023-05-04T07:59:56.253Z,14.73
2023-05-04T08:02:24.885Z,14.63
2023-05-04T08:04:53.401Z,14.64
2023-05-04T08:07:22.830Z,14.63
2023-05-04T08:09:52.708Z,14.60
2023-05-04T08:12:21.133Z,14.54
2023-05-04T08:14:49.659Z,14.60
2023-05-04T08:17:18.072Z,14.61
2023-05-04T08:19:46.437Z,14.64
2023-05-04T08:22:14.858Z,14.65
2023-05-04T08:24:45.443Z,14.69
2023-05-04T08:27:17.056Z,14.76
2023-05-04T08:29:45.628Z,14.71
2023-05-04T08:32:14.509Z,14.77
2023-05-04T08:34:43.176Z,14.87
2023-05-04T08:37:11.955Z,14.85
2023-05-04T08:39:44.115Z,14.90
2023-05-04T08:42:12.540Z,14.88
2023-05-04T08:44:42.082Z,14.98
2023-05-04T08:47:12.687Z,14.98
2023-05-04T08:49:41.519Z,14.84
2023-05-04T08:52:10.376Z,14.94
2023-05-04T08:54:40.231Z,15.00
2023-05-04T08:57:08.666Z,15.08
2023-05-04T08:59:37.639Z,15.23
2023-05-04T09:02:06.449Z,15.35
2023-05-04T09:04:35.286Z,15.47
2023-05-04T09:07:09.740Z,15.64
2023-05-04T09:09:38.558Z,15.76
2023-05-04T09:12:07.099Z,15.98
2023-05-04T09:14:36.488Z,16.07
2023-05-04T09:17:14.013Z,16.17
2023-05-04T09:19:44.452Z,16.43
2023-05-04T09:22:17.389Z,16.68
2023-05-04T09:24:46.640Z,16.64
2023-05-04T09:27:18.782Z,16.50
2023-05-04T09:29:54.106Z,16.44
2023-05-04T09:32:22.693Z,16.45
2023-05-04T09:34:52.145Z,16.48
2023-05-04T09:37:21.586Z,16.49
2023-05-04T09:39:59.494Z,16.67
2023-05-04T09:42:29.000Z,16.77
2023-05-04T09:45:00.740Z,16.83
2023-05-04T09:47:55.809Z,16.89
2023-05-04T09:50:26.223Z,17.07
2023-05-04T09:52:55.000Z,17.18
2023-05-04T09:55:24.570Z,17.34
2023-05-04T09:57:53.223Z,17.55
2023-05-04T10:00:21.622Z,17.69
2023-05-04T10:03:02.118Z,17.93
2023-05-04T10:05:38.844Z,18.24
2023-05-04T10:08:09.153Z,18.35
2023-05-04T10:10:39.347Z,18.45
2023-05-04T10:13:07.915Z,18.58
2023-05-04T10:15:40.848Z,18.67
2023-05-04T10:18:34.209Z,18.63
2023-05-04T10:21:15.713Z,18.68
2023-05-04T10:23:58.987Z,18.73
2023-05-04T10:26:35.972Z,18.59
2023-05-04T10:29:23.427Z,18.76
2023-05-04T10:31:53.612Z,18.68
2023-05-04T10:34:33.076Z,18.66
2023-05-04T10:37:04.351Z,18.49
2023-05-04T10:39:34.469Z,18.53
2023-05-04T10:42:04.730Z,18.68
2023-05-04T10:44:35.334Z,18.70
2023-05-04T10:47:08.898Z,18.66
2023-05-04T10:49:39.519Z,18.83
2023-05-04T10:52:09.111Z,18.86
2023-05-04T10:54:38.587Z,18.87
2023-05-04T10:57:09.590Z,18.92
2023-05-04T10:59:39.513Z,19.10
2023-05-04T11:02:08.568Z,19.11
2023-05-04T11:04:38.189Z,19.21
2023-05-04T11:07:08.890Z,19.17
2023-05-04T11:09:39.342Z,19.19
2023-05-04T11:12:10.934Z,19.21
2023-05-04T11:14:43.468Z,19.23
2023-05-04T11:17:27.270Z,19.28
2023-05-04T11:19:57.036Z,19.28
2023-05-04T11:22:25.678Z,19.34
2023-05-04T11:24:56.090Z,19.31
2023-05-04T11:27:29.777Z,19.41
2023-05-04T11:30:02.331Z,19.39
2023-05-04T11:32:44.409Z,19.36
2023-05-04T11:35:23.142Z,19.67
2023-05-04T11:37:51.869Z,19.83
2023-05-04T11:40:24.392Z,19.97
2023-05-04T11:42:57.364Z,20.14
2023-05-04T11:45:34.737Z,20.30
2023-05-04T11:48:03.413Z,20.32
2023-05-04T11:50:32.193Z,20.52
2023-05-04T11:53:10.087Z,20.62
2023-05-04T11:55:38.714Z,20.80
2023-05-04T11:58:09.199Z,20.90
2023-05-04T12:00:40.139Z,20.85
2023-05-04T12:03:27.988Z,20.82
2023-05-04T12:06:04.337Z,20.88
2023-05-04T12:08:42.330Z,20.89
2023-05-04T12:11:26.534Z,20.78
2023-05-04T12:14:12.008Z,20.60
2023-05-04T12:16:41.306Z,20.09
2023-05-04T12:19:13.602Z,20.02
2023-05-04T12:21:54.395Z,19.99
2023-05-04T12:24:23.961Z,20.20
2023-05-04T12:26:52.401Z,20.53
2023-05-04T12:29:21.029Z,20.68
2023-05-04T12:31:49.488Z,20.81
2023-05-04T12:34:18.023Z,20.75
2023-05-04T12:36:46.679Z,20.74
2023-05-04T12:39:15.192Z,20.67
2023-05-04T12:41:43.708Z,20.60
2023-05-04T12:44:14.572Z,20.68
2023-05-04T12:46:46.138Z,20.59
2023-05-04T12:49:14.931Z,20.79
2023-05-04T12:51:43.798Z,21.18
2023-05-04T12:54:12.366Z,21.61
2023-05-04T12:56:40.852Z,22.03
2023-05-04T12:59:09.229Z,22.29
2023-05-04T13:01:37.761Z,22.09
2023-05-04T13:04:06.177Z,21.81
2023-05-04T13:06:34.595Z,21.54
2023-05-04T13:09:06.100Z,21.32
2023-05-04T13:11:35.278Z,21.13
2023-05-04T13:14:03.886Z,21.17
2023-05-04T13:16:32.242Z,21.13
2023-05-04T13:19:00.829Z,21.29
2023-05-04T13:21:29.231Z,21.45
2023-05-04T13:23:59.537Z,21.57
2023-05-04T13:26:28.047Z,21.51
2023-05-04T13:28:56.476Z,21.18
2023-05-04T13:31:24.887Z,20.98
2023-05-04T13:33:53.622Z,20.94
2023-05-04T13:36:22.119Z,20.49
2023-05-04T13:38:51.430Z,20.35
2023-05-04T13:41:19.807Z,20.24
2023-05-04T13:43:48.783Z,20.25
2023-05-04T13:46:17.410Z,20.11
2023-05-04T13:48:45.916Z,20.05
2023-05-04T13:51:14.378Z,20.01
2023-05-04T13:53:46.285Z,19.94
2023-05-04T13:56:14.693Z,19.91
2023-05-04T13:58:43.189Z,19.57
2023-05-04T14:01:11.864Z,19.60
2023-05-04T14:03:40.999Z,19.47
2023-05-04T14:06:09.631Z,19.27
2023-05-04T14:08:38.144Z,19.17
2023-05-04T14:11:06.462Z,19.17
2023-05-04T14:13:34.837Z,19.18
2023-05-04T14:16:04.046Z,19.29
2023-05-04T14:18:33.154Z,19.41
2023-05-04T14:21:01.599Z,19.45
2023-05-04T14:23:29.992Z,19.50
2023-05-04T14:25:58.382Z,19.54
2023-05-04T14:28:26.709Z,19.50
2023-05-04T14:30:55.146Z,19.53
2023-05-04T14:33:24.831Z,19.49
2023-05-04T14:35:53.208Z,19.32
2023-05-04T14:38:21.728Z,19.28
2023-05-04T14:40:50.183Z,19.15
2023-05-04T14:43:18.662Z,19.19
2023-05-04T14:45:47.305Z,19.26
2023-05-04T14:48:16.647Z,19.29
2023-05-04T14:50:45.086Z,19.16
2023-05-04T14:53:13.537Z,19.19
2023-05-04T14:55:42.381Z,19.22
2023-05-04T14:58:11.084Z,19.27
2023-05-04T15:00:39.508Z,19.09
2023-05-04T15:03:08.372Z,19.17
2023-05-04T15:05:36.847Z,19.22
2023-05-04T15:08:05.608Z,19.28
2023-05-04T15:10:33.986Z,19.37
2023-05-04T15:13:03.532Z,19.36
2023-05-04T15:15:32.094Z,19.34
2023-05-04T15:18:00.566Z,19.31
2023-05-04T15:20:29.112Z,19.37
2023-05-04T15:22:57.629Z,19.48
2023-05-04T15:25:27.493Z,19.56
2023-05-04T15:27:55.880Z,19.60
2023-05-04T15:30:24.250Z,19.64
2023-05-04T15:32:52.667Z,19.47
2023-05-04T15:35:21.295Z,19.33
2023-05-04T15:37:49.666Z,19.38
2023-05-04T15:40:18.645Z,19.40
2023-05-04T15:42:48.562Z,19.41
2023-05-04T15:45:19.867Z,19.37
2023-05-04T15:47:48.562Z,19.34
2023-05-04T15:50:17.133Z,19.30
2023-05-04T15:52:45.684Z,19.12
2023-05-04T15:55:25.316Z,18.92
2023-05-04T15:57:54.495Z,18.75
2023-05-04T16:00:23.144Z,18.50
2023-05-04T16:02:52.027Z,18.24
2023-05-04T16:05:20.706Z,18.15
2023-05-04T16:07:49.107Z,18.04
2023-05-04T16:10:17.592Z,17.98
2023-05-04T16:12:45.978Z,17.93
2023-05-04T16:15:14.534Z,17.77
2023-05-04T16:17:43.043Z,17.68
2023-05-04T16:20:12.044Z,17.63
2023-05-04T16:22:40.498Z,17.61
2023-05-04T16:25:11.030Z,17.62
2023-05-04T16:27:40.012Z,17.57
2023-05-04T16:30:09.229Z,17.42
2023-05-04T16:32:38.056Z,17.46
2023-05-04T16:35:07.380Z,17.41
2023-05-04T16:37:37.516Z,17.31
2023-05-04T16:40:14.414Z,17.29
2023-05-04T16:42:43.923Z,17.29
2023-05-04T16:45:16.577Z,17.28
2023-05-04T16:47:44.949Z,17.24
2023-05-04T16:50:14.257Z,17.19
2023-05-04T16:52:42.982Z,17.11
2023-05-04T16:55:12.406Z,17.10
2023-05-04T16:57:41.271Z,17.06
2023-05-04T17:00:10.829Z,17.01
2023-05-04T17:02:39.223Z,17.02
2023-05-04T17:05:10.664Z,17.01
2023-05-04T17:07:39.965Z,16.97
2023-05-04T17:10:09.129Z,16.95
2023-05-04T17:12:38.086Z,16.93
2023-05-04T17:15:06.973Z,16.91
2023-05-04T17:17:35.545Z,16.88
2023-05-04T17:20:04.350Z,16.80
2023-05-04T17:22:32.691Z,16.76
2023-05-04T17:25:01.284Z,16.68
2023-05-04T17:27:29.644Z,16.70
2023-05-04T17:29:57.980Z,16.64
2023-05-04T17:32:27.014Z,16.58
2023-05-04T17:34:57.067Z,16.52
2023-05-04T17:37:27.163Z,16.47
2023-05-04T17:39:55.623Z,16.49
2023-05-04T17:42:24.037Z,16.48
2023-05-04T17:44:52.483Z,16.48
2023-05-04T17:47:20.988Z,16.45
2023-05-04T17:49:49.358Z,16.45
2023-05-04T17:52:17.820Z,16.45
2023-05-04T17:54:46.135Z,16.46
2023-05-04T17:57:14.361Z,16.45
2023-05-04T17:59:42.882Z,16.41
2023-05-04T18:02:11.530Z,16.35
2023-05-04T18:04:39.864Z,16.33
2023-05-04T18:07:08.212Z,16.28
2023-05-04T18:09:36.620Z,16.27
2023-05-04T18:12:05.364Z,16.21
2023-05-04T18:14:33.838Z,16.17
2023-05-04T18:17:02.200Z,16.22
2023-05-04T18:19:34.566Z,16.21
2023-05-04T18:22:02.891Z,16.18
2023-05-04T18:24:33.769Z,16.11
2023-05-04T18:27:02.605Z,16.10
2023-05-04T18:29:32.263Z,16.09
2023-05-04T18:32:01.501Z,15.98
2023-05-04T18:34:30.026Z,15.93
2023-05-04T18:36:58.383Z,16.04
2023-05-04T18:39:26.693Z,16.06
2023-05-04T18:41:55.022Z,16.05
2023-05-04T18:44:23.328Z,16.05
2023-05-04T18:46:51.717Z,16.04
2023-05-04T18:49:20.152Z,16.02
2023-05-04T18:51:48.475Z,16.02
2023-05-04T18:54:17.495Z,15.97
2023-05-04T18:56:45.958Z,15.95
2023-05-04T18:59:14.304Z,15.92
2023-05-04T19:01:42.643Z,15.92
2023-05-04T19:04:11.117Z,15.92
2023-05-04T19:06:39.469Z,15.88
2023-05-04T19:09:08.974Z,15.88
2023-05-04T19:11:37.398Z,15.83
2023-05-04T19:14:05.908Z,15.82
2023-05-04T19:16:34.317Z,15.80
2023-05-04T19:19:02.903Z,15.77
2023-05-04T19:21:31.222Z,15.76
2023-05-04T19:23:59.543Z,15.74
2023-05-04T19:26:27.808Z,15.67
2023-05-04T19:28:56.146Z,15.66
2023-05-04T19:31:24.592Z,15.69
2023-05-04T19:33:53.206Z,15.71
2023-05-04T19:36:22.076Z,15.71
2023-05-04T19:38:50.483Z,15.68
2023-05-04T19:41:19.046Z,15.70
2023-05-04T19:43:47.398Z,15.71
2023-05-04T19:46:15.904Z,15.62
2023-05-04T19:48:44.398Z,15.56
2023-05-04T19:51:12.932Z,15.47
2023-05-04T19:53:41.417Z,15.42
2023-05-04T19:56:09.954Z,15.43
2023-05-04T19:58:38.828Z,15.38
2023-05-04T20:01:07.299Z,15.36
2023-05-04T20:03:35.758Z,15.32
2023-05-04T20:06:04.337Z,15.21
2023-05-04T20:08:32.839Z,15.23
2023-05-04T20:11:01.217Z,15.23
2023-05-04T20:13:29.623Z,15.23
2023-05-04T20:15:57.982Z,15.15
2023-05-04T20:18:26.369Z,15.12
2023-05-04T20:20:54.813Z,15.09
2023-05-04T20:23:23.343Z,15.08
2023-05-04T20:25:51.711Z,15.06
2023-05-04T20:28:20.068Z,14.94
2023-05-04T20:30:48.513Z,14.98
2023-05-04T20:33:16.960Z,14.94
2023-05-04T20:35:45.579Z,14.97
2023-05-04T20:38:14.401Z,14.95
2023-05-04T20:40:42.804Z,15.00
2023-05-04T20:43:11.647Z,14.98
2023-05-04T20:45:40.065Z,14.96
2023-05-04T20:48:08.500Z,14.99
2023-05-04T20:50:36.930Z,14.92
2023-05-04T20:53:05.440Z,14.85
2023-05-04T20:55:33.842Z,14.86
2023-05-04T20:58:02.328Z,14.83
2023-05-04T21:00:33.002Z,14.80
2023-05-04T21:03:02.231Z,14.74
2023-05-04T21:05:30.830Z,14.72
2023-05-04T21:07:59.247Z,14.68
2023-05-04T21:10:27.630Z,14.72
2023-05-04T21:12:57.733Z,14.76
2023-05-04T21:15:26.791Z,14.77
2023-05-04T21:17:55.361Z,14.77
2023-05-04T21:20:23.783Z,14.71
2023-05-04T21:22:52.108Z,14.62
2023-05-04T21:25:20.554Z,14.69
2023-05-04T21:27:48.937Z,14.65
2023-05-04T21:30:17.499Z,14.67
2023-05-04T21:32:46.396Z,14.61
2023-05-04T21:35:16.669Z,14.51
2023-05-04T21:37:45.082Z,14.61
2023-05-04T21:40:13.975Z,14.65
2023-05-04T21:42:42.383Z,14.64
2023-05-04T21:45:11.156Z,14.65
2023-05-04T21:47:39.850Z,14.66
2023-05-04T21:50:08.960Z,14.68
2023-05-04T21:52:37.633Z,14.71
2023-05-04T21:55:07.217Z,14.67
2023-05-04T21:57:35.648Z,14.78
2023-05-04T22:00:12.055Z,14.82
2023-05-04T22:02:40.725Z,14.84
2023-05-04T22:05:10.448Z,14.86
2023-05-04T22:07:38.802Z,14.87
2023-05-04T22:10:08.124Z,14.86
2023-05-04T22:12:36.779Z,14.86
2023-05-04T22:15:06.864Z,14.86
2023-05-04T22:17:35.341Z,14.86
2023-05-04T22:20:03.967Z,14.85
2023-05-04T22:22:32.343Z,14.83
2023-05-04T22:25:00.913Z,14.80
2023-05-04T22:27:29.275Z,14.73
2023-05-04T22:29:57.656Z,14.65
2023-05-04T22:32:26.307Z,14.54
2023-05-04T22:34:54.691Z,14.54
2023-05-04T22:37:23.131Z,14.59
2023-05-04T22:39:51.909Z,14.63
2023-05-04T22:42:20.259Z,14.63
2023-05-04T22:44:48.588Z,14.62
2023-05-04T22:47:16.956Z,14.62
2023-05-04T22:49:45.680Z,14.65
2023-05-04T22:52:15.059Z,14.62
2023-05-04T22:54:43.469Z,14.61
2023-05-04T22:57:12.338Z,14.58
2023-05-04T22:59:40.666Z,14.60
2023-05-04T23:02:09.264Z,14.54
2023-05-04T23:04:38.181Z,14.56
2023-05-04T23:07:06.624Z,14.57
2023-05-04T23:09:42.919Z,14.54
2023-05-04T23:12:15.459Z,14.53
2023-05-04T23:14:43.881Z,14.55
2023-05-04T23:17:12.334Z,14.55
2023-05-04T23:19:41.030Z,14.57
2023-05-04T23:22:09.556Z,14.58
2023-05-04T23:24:38.020Z,14.57
2023-05-04T23:27:06.379Z,14.54
2023-05-04T23:29:34.710Z,14.50
2023-05-04T23:32:04.104Z,14.46
2023-05-04T23:34:32.541Z,14.39
2023-05-04T23:37:01.354Z,14.37
2023-05-04T23:39:29.964Z,14.23
2023-05-04T23:41:58.354Z,14.28
2023-05-04T23:44:26.945Z,14.27
2023-05-04T23:46:55.268Z,14.23
2023-05-04T23:49:23.658Z,14.20
2023-05-04T23:51:53.102Z,14.05
2023-05-04T23:54:21.584Z,14.08
2023-05-04T23:56:50.129Z,14.03
2023-05-04T23:59:18.739Z,13.96
